Time;durP1;ratioP1;P1;durP2;ratioP2;P2;SDS_P1;SDS_P2;PMS_P1;PMS_P2;Temp;Humidity;BMP_temperature;BMP_pressure;BME280_temperature;BME280_humidity;BME280_pressure;Samples;Min_cycle;Max_cycle;Signal;HPM_P1;HPM_P2
2021/11/02 00:00:00;;;;;;;13.67;6.43;;;;;;;17.13;100.00;99728.72;4936715;29;19918;-56
2021/11/02 00:02:26;;;;;;;14.35;6.97;;;;;;;17.45;100.00;99731.19;4904020;29;20075;-57
2021/11/02 00:04:51;;;;;;;17.08;6.97;;;;;;;17.30;100.00;99723.88;4936716;29;20051;-56
2021/11/02 00:07:17;;;;;;;22.93;6.90;;;;;;;16.92;100.00;99718.63;4919078;29;20051;-52
2021/11/02 00:09:44;;;;;;;20.47;7.33;;;;;;;16.69;100.00;99719.06;4919146;29;20099;-52
2021/11/02 00:12:11;;;;;;;17.75;7.03;;;;;;;17.01;100.00;99716.25;4918770;29;20063;-55
2021/11/02 00:14:37;;;;;;;15.20;6.60;;;;;;;16.58;100.00;99715.50;4935442;29;20424;-53
2021/11/02 00:17:12;;;;;;;20.07;7.90;;;;;;;16.95;100.00;99714.59;4935104;29;20070;-56
2021/11/02 00:19:40;;;;;;;15.82;7.28;;;;;;;16.45;100.00;99716.81;4919421;29;20058;-53
2021/11/02 00:22:14;;;;;;;23.02;8.30;;;;;;;17.01;100.00;99716.25;4936045;29;20043;-56
2021/11/02 00:24:50;;;;;;;18.77;7.78;;;;;;;17.53;100.00;99713.66;4936160;29;20446;-57
2021/11/02 00:27:15;;;;;;;16.00;6.47;;;;;;;17.63;100.00;99721.75;4920518;29;20043;-55
2021/11/02 00:29:41;;;;;;;17.53;7.10;;;;;;;17.60;100.00;99716.88;4935675;29;20091;-57
2021/11/02 00:32:07;;;;;;;15.30;7.38;;;;;;;17.44;100.00;99723.34;4919491;29;20044;-54
2021/11/02 00:34:33;;;;;;;;;;;;;;;17.86;100.00;99727.69;4919160;29;20494;-55
2021/11/02 00:36:59;;;;;;;15.93;7.20;;;;;;;17.30;100.00;99723.88;4934725;29;19978;-53
2021/11/02 00:39:24;;;;;;;15.73;6.45;;;;;;;17.46;100.00;99726.59;4918837;29;20043;-54
2021/11/02 00:41:50;;;;;;;15.80;8.10;;;;;;;17.54;100.00;99728.78;4934589;29;20055;-54
2021/11/02 00:44:17;;;;;;;19.47;7.33;;;;;;;17.24;100.00;99729.53;4935876;29;20051;-53
2021/11/02 00:46:43;;;;;;;15.68;6.95;;;;;;;17.31;100.00;99720.09;4919098;29;20038;-56
2021/11/02 00:49:16;;;;;;;13.75;7.00;;;;;;;17.37;100.00;99730.91;4935181;29;20044;-52
2021/11/02 00:51:43;;;;;;;17.60;7.07;;;;;;;17.35;100.00;99725.78;4919183;29;20062;-50
2021/11/02 00:54:09;;;;;;;17.77;7.93;;;;;;;17.77;100.00;99726.63;4935709;29;20031;-51
2021/11/02 00:56:35;;;;;;;20.55;7.75;;;;;;;17.24;100.00;99724.94;4918799;29;20111;-55
2021/11/02 00:59:01;;;;;;;17.75;7.22;;;;;;;17.10;100.00;99721.94;4919012;29;20044;-56
2021/11/02 01:01:27;;;;;;;18.17;7.30;;;;;;;17.03;100.00;99724.88;4902985;29;20059;-54
2021/11/02 01:03:52;;;;;;;18.53;6.67;;;;;;;16.94;100.00;99722.94;4919286;29;20378;-51
2021/11/02 01:06:18;;;;;;;18.10;7.23;;;;;;;16.70;100.00;99718.00;4918507;29;20044;-52
2021/11/02 01:08:43;;;;;;;24.40;7.90;;;;;;;16.68;100.00;99728.25;4935603;29;20079;-51
2021/11/02 01:11:09;;;;;;;14.80;6.95;;;;;;;16.85;100.00;99731.56;4934741;29;20274;-51
2021/11/02 01:13:35;;;;;;;18.88;7.43;;;;;;;16.66;100.00;99728.53;4934364;29;20047;-52
2021/11/02 01:16:01;;;;;;;18.58;6.85;;;;;;;16.85;100.00;99730.75;4934214;29;20100;-50
2021/11/02 01:18:27;;;;;;;15.18;6.68;;;;;;;16.69;100.00;99725.28;4935764;29;20063;-59
2021/11/02 01:20:53;;;;;;;20.27;7.43;;;;;;;16.92;100.00;99717.81;4936321;29;20497;-60
2021/11/02 01:23:18;;;;;;;22.50;8.15;;;;;;;16.44;100.00;99713.31;4934808;29;20207;-59
2021/11/02 01:25:44;;;;;;;21.17;6.93;;;;;;;16.47;100.00;99714.66;4935967;29;20039;-60
2021/11/02 01:28:10;;;;;;;;;;;;;;;16.30;100.00;99717.53;4935590;29;20714;-59
2021/11/02 01:30:41;;;;;;;17.60;6.82;;;;;;;16.51;100.00;99706.84;4934527;29;19934;-59
2021/11/02 01:33:11;;;;;;;17.67;7.72;;;;;;;16.11;100.00;99709.88;4934674;29;20054;-61
2021/11/02 01:35:40;;;;;;;20.65;7.75;;;;;;;16.27;100.00;99707.28;4934694;29;20055;-60
2021/11/02 01:38:05;;;;;;;22.53;7.53;;;;;;;15.93;100.00;99718.41;4918898;29;20398;-59
2021/11/02 01:40:31;;;;;;;14.55;7.30;;;;;;;16.32;100.00;99710.00;4936385;29;20048;-59
2021/11/02 01:42:57;;;;;;;17.35;7.55;;;;;;;16.04;100.00;99711.97;4918772;29;20051;-60
2021/11/02 01:45:28;;;;;;;18.95;7.55;;;;;;;16.10;100.00;99719.03;4919279;29;20035;-59
2021/11/02 01:47:58;;;;;;;19.58;8.48;;;;;;;16.06;100.00;99712.53;4919107;29;20509;-61
2021/11/02 01:50:35;;;;;;;15.88;7.13;;;;;;;16.15;100.00;99710.16;4933423;29;20099;-59
2021/11/02 01:53:00;;;;;;;16.95;6.63;;;;;;;16.24;100.00;99714.00;4918664;29;20048;-59
2021/11/02 01:55:26;;;;;;;22.38;8.00;;;;;;;15.54;100.00;99711.28;4934601;29;20040;-60
2021/11/02 01:57:52;;;;;;;18.48;7.65;;;;;;;15.61;100.00;99707.31;4934516;29;20046;-59
2021/11/02 02:00:20;;;;;;;21.88;7.47;;;;;;;16.01;100.00;99709.81;4919816;29;20043;-58
2021/11/02 02:03:24;;;;;;;16.67;7.35;;;;;;;15.29;100.00;99702.75;4938248;29;20051;-59
2021/11/02 02:06:16;;;;;;;17.88;6.90;;;;;;;15.61;100.00;99707.31;4938399;29;20043;-59
2021/11/02 02:09:03;;;;;;;24.33;7.50;;;;;;;15.57;100.00;99703.53;4931153;29;20054;-59
2021/11/02 02:12:01;;;;;;;19.75;6.50;;;;;;;14.97;100.00;99702.69;4922533;29;20044;-59
2021/11/02 02:14:58;;;;;;;12.32;6.90;;;;;;;15.30;100.00;99701.66;4921660;29;20036;-60
2021/11/02 02:17:31;;;;;;;17.13;6.85;;;;;;;15.65;100.00;99696.03;4939086;29;20043;-61
2021/11/02 02:20:07;;;;;;;19.15;7.32;;;;;;;15.54;100.00;99700.50;4922413;29;20493;-59
2021/11/02 02:22:34;;;;;;;12.15;6.10;;;;;;;15.61;100.00;99691.16;4922536;29;20142;-59
2021/11/02 02:25:21;;;;;;;19.50;6.68;;;;;;;15.47;100.00;99706.13;4938810;29;20213;-61
2021/11/02 02:28:01;;;;;;;43.92;8.10;;;;;;;15.71;100.00;99697.72;4937436;29;20047;-59
2021/11/02 02:30:29;;;;;;;15.43;6.38;;;;;;;15.37;100.00;99695.25;4933982;29;20056;-59
2021/11/02 02:32:59;;;;;;;19.00;7.57;;;;;;;15.19;100.00;99700.75;4919685;29;20143;-59
2021/11/02 02:35:27;;;;;;;26.40;7.35;;;;;;;15.52;100.00;99691.88;4918132;29;20120;-59
2021/11/02 02:37:55;;;;;;;16.30;6.60;;;;;;;15.63;100.00;99683.63;4934667;29;20086;-59
2021/11/02 02:40:21;;;;;;;12.77;5.60;;;;;;;15.52;100.00;99687.31;4933803;29;20052;-59
2021/11/02 02:42:49;;;;;;;18.60;6.97;;;;;;;15.80;100.00;99690.75;4934847;29;20282;-59
2021/11/02 02:45:18;;;;;;;20.00;6.97;;;;;;;15.34;100.00;99688.50;4918645;29;20052;-59
2021/11/02 02:47:45;;;;;;;15.45;6.70;;;;;;;15.87;100.00;99685.16;4934408;29;20091;-60
2021/11/02 02:50:12;;;;;;;18.35;6.43;;;;;;;15.70;100.00;99688.00;4919417;29;20044;-62
2021/11/02 02:52:41;;;;;;;22.98;6.80;;;;;;;15.35;100.00;99684.75;4919440;29;20075;-60
2021/11/02 02:55:08;;;;;;;15.63;6.07;;;;;;;16.05;100.00;99686.66;4934455;29;20034;-60
2021/11/02 02:57:35;;;;;;;16.10;6.45;;;;;;;15.63;100.00;99690.91;4934426;29;20538;-58
2021/11/02 03:00:10;;;;;;;18.10;6.97;;;;;;;15.69;100.00;99691.78;4933841;29;20050;-58
2021/11/02 03:02:41;;;;;;;15.70;6.40;;;;;;;15.74;100.00;99681.03;4933985;29;20044;-59
2021/11/02 03:05:08;;;;;;;19.17;6.30;;;;;;;15.78;100.00;99693.69;4933916;29;20499;-59
2021/11/02 03:07:36;;;;;;;20.00;6.65;;;;;;;15.74;100.00;99681.03;4917395;29;20180;-58
2021/11/02 03:10:04;;;;;;;16.85;6.72;;;;;;;15.49;100.00;99679.75;4933286;29;20175;-61
2021/11/02 03:12:34;;;;;;;20.23;6.55;;;;;;;15.59;100.00;99674.44;4917323;29;20067;-59
2021/11/02 03:15:39;;;;;;;19.65;5.97;;;;;;;15.90;100.00;99676.56;4917722;29;20036;-60
2021/11/02 03:18:22;;;;;;;18.08;6.80;;;;;;;15.57;100.00;99681.97;4917887;29;20482;-59
2021/11/02 03:43:42;;;;;;;15.38;6.57;;;;;;;15.46;100.00;99689.16;4920205;29;20135;-59
2021/11/02 03:49:05;;;;;;;21.88;7.22;;;;;;;15.40;100.00;99694.75;4933450;29;20451;-60
2021/11/02 03:57:39;;;;;;;;;;;;;;;15.58;100.00;99694.38;4919598;29;20048;-59
2021/11/02 04:00:48;;;;;;;16.63;7.93;;;;;;;15.32;100.00;99691.44;4921315;29;19915;-59
2021/11/02 04:31:52;;;;;;;15.07;8.38;;;;;;;15.46;100.00;99693.75;4915883;29;20075;-60
2021/11/02 05:57:18;;;;;;;16.90;8.82;;;;;;;15.78;100.00;99695.59;4915981;29;20123;-59
2021/11/02 05:59:39;;;;;;;19.70;8.52;;;;;;;15.37;100.00;99692.56;4899874;29;20407;-59
2021/11/02 06:11:03;;;;;;;19.90;8.35;;;;;;;15.78;100.00;99692.91;4901168;29;20105;-59
2021/11/02 06:29:51;;;;;;;16.13;8.07;;;;;;;16.03;100.00;99695.00;4905889;29;20072;-61
2021/11/02 06:32:29;;;;;;;19.23;7.72;;;;;;;16.11;100.00;99692.88;4952623;29;20131;-61
2021/11/02 06:35:17;;;;;;;15.45;7.50;;;;;;;16.04;100.00;99696.63;4939444;29;20055;-60
2021/11/02 06:51:21;;;;;;;14.88;7.70;;;;;;;16.42;100.00;99714.63;4936976;29;20545;-60
2021/11/02 07:17:25;;;;;;;14.85;5.88;;;;;;;16.15;100.00;99713.69;4939260;29;20120;-60
2021/11/02 07:25:23;;;;;;;9.13;5.70;;;;;;;16.36;100.00;99721.88;4937907;29;20062;-60
2021/11/02 08:46:26;;;;;;;10.55;6.03;;;;;;;17.15;100.00;99750.88;4935178;29;20434;-59
2021/11/02 08:48:55;;;;;;;18.50;6.93;;;;;;;17.38;100.00;99746.84;4936561;29;20122;-60
2021/11/02 08:51:22;;;;;;;13.40;6.88;;;;;;;17.43;100.00;99743.34;4935956;29;20142;-60
2021/11/02 08:53:48;;;;;;;12.90;7.00;;;;;;;17.44;100.00;99748.50;4934667;29;20126;-60
2021/11/02 08:56:15;;;;;;;11.80;6.82;;;;;;;17.24;100.00;99746.56;4934703;29;20338;-61
2021/11/02 08:58:45;;;;;;;14.82;6.35;;;;;;;17.00;100.00;99732.72;4936040;29;20501;-59
2021/11/02 09:01:10;;;;;;;13.60;6.68;;;;;;;16.41;100.00;99740.00;4935728;29;20044;-60
2021/11/02 09:03:43;;;;;;;23.33;10.50;;;;;;;17.02;100.00;99733.28;4936026;29;20046;-60
2021/11/02 09:06:15;;;;;;;11.68;6.95;;;;;;;16.56;100.00;99731.16;4919220;29;20286;-60
2021/11/02 09:08:54;;;;;;;14.52;7.97;;;;;;;16.64;100.00;99736.06;4936236;29;20496;-60
2021/11/02 09:11:21;;;;;;;16.75;8.10;;;;;;;16.37;100.00;99736.19;4938183;29;20074;-59
2021/11/02 09:13:51;;;;;;;15.75;8.52;;;;;;;16.50;100.00;99743.84;4940102;29;20334;-60
2021/11/02 09:16:18;;;;;;;18.38;8.93;;;;;;;17.02;100.00;99733.28;4939391;29;20486;-60
2021/11/02 09:18:46;;;;;;;17.65;9.40;;;;;;;17.00;100.00;99738.13;4939020;29;20115;-60
2021/11/02 09:21:12;;;;;;;16.08;8.48;;;;;;;17.14;100.00;99743.84;4939553;29;20046;-59
2021/11/02 09:23:42;;;;;;;20.15;8.93;;;;;;;16.76;100.00;99749.34;4939416;29;20035;-60
2021/11/02 09:26:08;;;;;;;18.03;8.83;;;;;;;16.60;100.00;99741.16;4939988;29;20582;-56
2021/11/02 09:28:34;;;;;;;28.30;10.07;;;;;;;16.90;100.00;99746.97;4939596;29;20340;-60
2021/11/02 09:31:01;;;;;;;14.52;9.13;;;;;;;16.47;100.00;99757.81;4939451;29;20047;-60
2021/11/02 09:33:27;;;;;;;18.90;9.55;;;;;;;16.72;100.00;99750.94;4939662;29;20130;-60
2021/11/02 09:36:04;;;;;;;14.35;8.80;;;;;;;16.68;100.00;99755.22;4939563;29;20269;-63
2021/11/02 09:38:42;;;;;;;25.25;10.45;;;;;;;16.76;100.00;99747.44;4939797;29;20043;-60
2021/11/02 09:41:38;;;;;;;20.10;9.45;;;;;;;16.97;100.00;99752.13;4939746;29;20042;-60
2021/11/02 09:44:28;;;;;;;26.70;10.25;;;;;;;16.75;100.00;99748.53;4939432;29;20490;-60
2021/11/02 09:46:59;;;;;;;15.70;9.87;;;;;;;17.26;100.00;99755.19;4939128;29;20130;-60
2021/11/02 09:49:49;;;;;;;18.07;10.47;;;;;;;17.32;100.00;99756.84;4939252;29;20811;-60
2021/11/02 09:52:41;;;;;;;20.70;10.23;;;;;;;17.28;100.00;99753.03;4939161;29;20740;-58
2021/11/02 09:55:30;;;;;;;21.67;11.13;;;;;;;17.24;100.00;99753.84;4922008;29;20035;-58
2021/11/02 09:58:02;;;;;;;21.38;11.18;;;;;;;17.23;100.00;99758.44;4939471;29;20624;-58
2021/11/02 10:00:54;;;;;;;20.00;10.48;;;;;;;17.49;100.00;99753.06;4921916;29;20046;-59
2021/11/02 10:03:49;;;;;;;23.70;11.40;;;;;;;17.29;100.00;99765.47;4938959;29;20501;-59
2021/11/02 10:06:31;;;;;;;26.75;11.65;;;;;;;17.10;100.00;99762.47;4935341;29;20110;-58
2021/11/02 10:09:27;;;;;;;23.95;12.25;;;;;;;18.04;100.00;99758.00;4938740;29;20035;-59
2021/11/02 10:12:02;;;;;;;23.63;10.50;;;;;;;17.76;100.00;99760.13;4938591;29;20036;-59
2021/11/02 10:14:33;;;;;;;24.57;11.57;;;;;;;17.66;100.00;99762.84;4938943;29;20050;-59
2021/11/02 10:17:11;;;;;;;20.13;10.93;;;;;;;17.58;100.00;99761.47;4921771;29;20277;-59
2021/11/02 10:20:08;;;;;;;24.20;12.60;;;;;;;17.70;100.00;99766.63;4938982;29;20269;-59
2021/11/02 10:22:56;;;;;;;23.83;12.67;;;;;;;17.68;100.00;99761.50;4921407;29;20292;-59
2021/11/02 10:25:25;;;;;;;24.90;12.52;;;;;;;17.66;100.00;99762.84;4938942;29;20317;-57
2021/11/02 10:28:17;;;;;;;24.03;11.73;;;;;;;18.24;100.00;99756.38;4937787;29;20082;-58
2021/11/02 10:31:01;;;;;;;26.23;12.83;;;;;;;17.19;100.00;99760.06;4938603;29;20389;-58
2021/11/02 10:33:34;;;;;;;22.43;12.50;;;;;;;18.08;100.00;99763.66;4938583;29;20273;-58
2021/11/02 10:36:24;;;;;;;26.13;12.83;;;;;;;18.37;100.00;99760.41;4906427;29;20281;-59
2021/11/02 10:39:06;;;;;;;27.13;12.63;;;;;;;17.93;100.00;99757.19;4941317;29;20372;-59
2021/11/02 10:41:40;;;;;;;31.23;13.10;;;;;;;17.58;100.00;99754.19;4928264;29;20294;-59
2021/11/02 10:44:17;;;;;;;22.97;12.90;;;;;;;17.72;100.00;99756.34;4921344;29;20290;-59
2021/11/02 10:47:03;;;;;;;20.80;12.23;;;;;;;17.28;100.00;99761.16;4936931;29;20294;-59
2021/11/02 10:50:08;;;;;;;27.43;13.87;;;;;;;17.24;100.00;99756.56;4938057;29;20285;-59
2021/11/02 10:52:36;;;;;;;28.83;13.00;;;;;;;18.01;100.00;99758.53;4921065;29;20360;-59
2021/11/02 10:55:20;;;;;;;26.00;13.57;;;;;;;17.96;100.00;99756.63;4921356;29;20772;-58
2021/11/02 10:58:20;;;;;;;28.77;13.43;;;;;;;17.89;100.00;99753.41;4938091;29;20278;-59
2021/11/02 11:00:50;;;;;;;21.87;12.93;;;;;;;17.80;100.00;99755.00;4936570;29;20369;-58
2021/11/02 11:03:17;;;;;;;29.03;13.07;;;;;;;18.42;100.00;99758.47;4937244;29;20289;-59
2021/11/02 11:05:47;;;;;;;31.53;14.17;;;;;;;17.91;100.00;99754.72;4937164;29;20266;-59
2021/11/02 11:08:16;;;;;;;20.83;12.60;;;;;;;17.73;100.00;99755.25;4921000;29;20313;-58
2021/11/02 11:10:43;;;;;;;;;;;;;;;18.27;100.00;99756.59;4920898;29;20285;-59
2021/11/02 11:13:11;;;;;;;19.55;10.88;;;;;;;17.60;100.00;99752.03;4937892;29;19910;-57
2021/11/02 11:15:40;;;;;;;24.43;11.17;;;;;;;18.28;100.00;99752.03;4936615;29;20040;-58
2021/11/02 11:18:08;;;;;;;22.50;12.50;;;;;;;18.55;100.00;99748.97;4937702;29;20645;-59
2021/11/02 11:20:37;;;;;;;21.63;12.43;;;;;;;18.87;100.00;99750.47;4937284;29;20831;-58
2021/11/02 11:23:11;;;;;;;29.07;12.63;;;;;;;18.38;100.00;99746.56;4937883;29;20289;-58
2021/11/02 11:25:45;;;;;;;26.87;11.97;;;;;;;18.18;100.00;99747.44;4936796;29;20282;-58
2021/11/02 11:28:19;;;;;;;23.83;13.20;;;;;;;17.71;100.00;99750.13;4937525;29;20301;-58
2021/11/02 11:30:46;;;;;;;20.80;11.13;;;;;;;18.19;100.00;99749.06;4937485;29;20372;-58
2021/11/02 11:33:20;;;;;;;23.30;12.63;;;;;;;18.24;100.00;99749.03;4919775;29;20339;-59
2021/11/02 11:35:47;;;;;;;18.77;11.37;;;;;;;17.88;100.00;99743.66;4937417;29;20266;-59
2021/11/02 11:38:14;;;;;;;;;;;;;;;18.82;100.00;99741.56;4937424;29;20365;-59
2021/11/02 11:40:42;;;;;;;21.15;11.90;;;;;;;18.95;100.00;99732.84;4936141;29;19962;-58
2021/11/02 11:43:10;;;;;;;18.17;11.07;;;;;;;18.32;100.00;99734.94;4936098;29;20126;-59
2021/11/02 11:45:41;;;;;;;20.07;11.10;;;;;;;18.45;100.00;99727.34;4919775;29;20269;-60
2021/11/02 11:48:21;;;;;;;23.33;10.20;;;;;;;18.60;100.00;99726.47;4920294;29;20361;-59
2021/11/02 11:50:48;;;;;;;15.83;9.67;;;;;;;18.30;100.00;99723.59;4936956;29;20309;-59
2021/11/02 11:53:24;;;;;;;21.07;10.43;;;;;;;18.42;100.00;99714.38;4919665;29;20380;-59
2021/11/02 11:56:05;;;;;;;20.23;10.07;;;;;;;18.68;100.00;99719.69;4937789;29;20358;-59
2021/11/02 11:58:31;;;;;;;18.53;10.40;;;;;;;18.27;100.00;99724.13;4937268;29;20118;-60
2021/11/02 12:01:18;;;;;;;18.00;10.63;;;;;;;18.23;100.00;99717.66;4937170;29;20293;-59
2021/11/02 12:03:55;;;;;;;27.80;10.88;;;;;;;18.83;100.00;99719.63;4935388;29;20094;-60
2021/11/02 12:06:29;;;;;;;18.37;10.37;;;;;;;18.82;100.00;99711.78;4936899;29;20367;-60
2021/11/02 12:09:06;;;;;;;16.30;10.13;;;;;;;19.45;100.00;99708.44;4919448;29;20289;-59
2021/11/02 12:11:34;;;;;;;15.93;9.80;;;;;;;20.31;100.00;99706.34;4936680;29;20354;-58
2021/11/02 12:14:03;;;;;;;15.60;8.60;;;;;;;20.60;100.00;99708.16;4919548;29;20345;-59
2021/11/02 12:16:42;;;;;;;12.57;8.10;;;;;;;21.24;100.00;99705.16;4920028;29;20288;-58
2021/11/02 12:19:44;;;;;;;12.87;6.37;;;;;;;20.76;100.00;99706.88;4936648;29;20289;-59
2021/11/02 12:22:17;;;;;;;13.27;6.50;;;;;;;20.33;100.00;99710.38;4936554;29;20313;-59
2021/11/02 12:24:44;;;;;;;9.40;6.77;;;;;;;20.11;100.00;99697.31;4937034;29;20274;-58
2021/11/02 12:27:18;;;;;;;11.40;6.38;;;;;;;20.41;100.00;99698.06;4936263;29;20325;-59
2021/11/02 12:29:46;;;;;;;12.30;7.90;;;;;;;19.54;100.00;99697.00;4936529;29;20035;-60
2021/11/02 12:32:14;;;;;;;15.00;7.07;;;;;;;18.77;100.00;99699.88;4919119;29;20772;-60
2021/11/02 12:34:53;;;;;;;13.97;7.40;;;;;;;19.03;100.00;99701.66;4936496;29;20282;-60
2021/11/02 12:37:20;;;;;;;12.63;7.53;;;;;;;18.95;100.00;99689.50;4936441;29;20314;-59
2021/11/02 12:39:47;;;;;;;13.50;7.93;;;;;;;18.54;100.00;99692.41;4935403;29;20270;-60
2021/11/02 12:42:16;;;;;;;12.73;8.93;;;;;;;19.25;100.00;99697.72;4939721;29;20039;-59
2021/11/02 12:44:44;;;;;;;14.80;8.07;;;;;;;18.97;100.00;99690.03;4940421;29;20305;-60
2021/11/02 12:47:14;;;;;;;16.03;8.80;;;;;;;19.03;100.00;99702.47;4936193;29;20282;-60
2021/11/02 12:49:41;;;;;;;17.30;8.37;;;;;;;18.35;100.00;99698.41;4936529;29;20737;-59
2021/11/02 12:52:11;;;;;;;18.60;8.10;;;;;;;18.46;100.00;99694.59;4936123;29;20280;-60
2021/11/02 12:54:38;;;;;;;18.10;8.30;;;;;;;18.55;100.00;99694.03;4903258;29;20369;-60
2021/11/02 12:57:37;;;;;;;13.13;7.90;;;;;;;18.02;100.00;99698.75;4936268;29;20266;-59
2021/11/02 13:00:11;;;;;;;16.27;8.17;;;;;;;17.99;100.00;99696.56;4919884;29;20744;-60
2021/11/02 13:02:45;;;;;;;19.37;9.27;;;;;;;18.33;100.00;99687.06;4936041;29;20744;-59
2021/11/02 13:05:23;;;;;;;13.80;8.83;;;;;;;18.53;100.00;99693.50;4919486;29;20422;-60
2021/11/02 13:07:57;;;;;;;20.43;11.07;;;;;;;18.76;100.00;99690.13;4936141;29;20297;-58
2021/11/02 13:10:30;;;;;;;18.20;11.20;;;;;;;18.43;100.00;99689.72;4918848;29;20790;-59
2021/11/02 13:13:04;;;;;;;20.17;11.53;;;;;;;19.34;100.00;99690.63;4936367;29;20274;-59
2021/11/02 13:15:31;;;;;;;18.30;10.00;;;;;;;18.44;100.00;99688.63;4936059;29;20262;-59
2021/11/02 13:18:00;;;;;;;29.10;11.70;;;;;;;18.33;100.00;99689.75;4919622;29;20266;-58
2021/11/02 13:20:33;;;;;;;21.93;11.73;;;;;;;18.55;100.00;99696.72;4936473;29;20326;-59
2021/11/02 13:23:01;;;;;;;22.97;12.27;;;;;;;18.72;100.00;99691.78;4936020;29;20266;-59
2021/11/02 13:25:41;;;;;;;21.50;11.87;;;;;;;18.77;100.00;99699.88;4935881;29;20292;-60
2021/11/02 13:28:08;;;;;;;27.20;13.33;;;;;;;18.22;100.00;99699.81;4937385;29;20509;-61
2021/11/02 13:30:39;;;;;;;27.47;13.93;;;;;;;18.42;100.00;99693.50;4937012;29;20278;-60
2021/11/02 13:33:09;;;;;;;17.23;11.40;;;;;;;18.65;100.00;99693.97;4936177;29;20289;-60
2021/11/02 13:35:41;;;;;;;18.63;10.53;;;;;;;18.53;100.00;99694.28;4935748;29;20333;-60
2021/11/02 13:38:28;;;;;;;21.57;10.87;;;;;;;19.30;100.00;99695.78;4935844;29;20281;-60
2021/11/02 13:41:19;;;;;;;16.35;9.93;;;;;;;18.80;100.00;99693.09;4919062;29;20262;-59
2021/11/02 13:43:49;;;;;;;20.07;11.57;;;;;;;19.18;100.00;99701.56;4936172;29;20043;-58
2021/11/02 13:46:18;;;;;;;17.80;11.20;;;;;;;18.42;100.00;99698.13;4935811;29;20748;-60
2021/11/02 13:48:45;;;;;;;23.50;12.17;;;;;;;18.29;100.00;99691.41;4918614;29;20345;-60
2021/11/02 13:51:13;;;;;;;18.38;10.57;;;;;;;18.23;100.00;99697.91;4936122;29;20286;-59
2021/11/02 13:53:40;;;;;;;19.63;10.53;;;;;;;18.25;100.00;99690.34;4935591;29;20118;-58
2021/11/02 13:56:27;;;;;;;19.65;10.52;;;;;;;18.57;100.00;99699.97;4918578;29;20278;-48
2021/11/02 13:58:54;;;;;;;20.23;10.70;;;;;;;18.12;100.00;99686.31;4938574;29;20062;-51
2021/11/02 14:01:35;;;;;;;26.47;12.80;;;;;;;17.84;100.00;99699.28;4921661;29;20435;-51
2021/11/02 14:04:21;;;;;;;22.03;13.60;;;;;;;18.29;100.00;99691.41;4937331;29;20369;-51
2021/11/02 14:06:53;;;;;;;21.23;11.77;;;;;;;17.79;100.00;99700.13;4938790;29;20423;-51
2021/11/02 14:09:26;;;;;;;25.93;11.57;;;;;;;17.76;100.00;99708.75;4921997;29;20736;-52
2021/11/02 14:11:52;;;;;;;21.57;11.77;;;;;;;18.64;100.00;99695.06;4938336;29;20278;-52
2021/11/02 14:14:35;;;;;;;20.73;11.98;;;;;;;17.51;100.00;99694.16;4936838;29;20751;-52
2021/11/02 14:17:18;;;;;;;19.90;12.27;;;;;;;17.81;100.00;99695.25;4938576;29;20118;-50
2021/11/02 14:19:48;;;;;;;23.20;13.13;;;;;;;17.48;100.00;99692.81;4938058;29;20890;-52
2021/11/02 14:22:35;;;;;;;27.17;13.67;;;;;;;17.95;100.00;99692.78;4937982;29;20297;-52
2021/11/02 14:25:13;;;;;;;23.53;12.97;;;;;;;17.70;100.00;99699.84;4938073;29;20329;-54
2021/11/02 14:27:44;;;;;;;16.67;11.10;;;;;;;17.76;100.00;99697.94;4920942;29;20463;-54
2021/11/02 14:30:31;;;;;;;21.17;12.07;;;;;;;18.74;100.00;99695.03;4936512;29;20290;-54
2021/11/02 14:33:10;;;;;;;12.73;7.32;;;;;;;18.09;100.00;99706.59;4924450;29;20278;-52
2021/11/02 14:35:42;;;;;;;12.27;7.77;;;;;;;18.60;100.00;99688.56;4937955;29;20040;-51
2021/11/02 14:38:10;;;;;;;10.47;7.13;;;;;;;18.89;100.00;99696.00;4936992;29;20285;-54
2021/11/02 14:40:38;;;;;;;12.80;7.40;;;;;;;19.35;100.00;99692.25;4920545;29;20263;-49
2021/11/02 14:43:12;;;;;;;11.33;7.07;;;;;;;18.31;100.00;99697.34;4937838;29;20292;-52
2021/11/02 14:45:53;;;;;;;12.03;7.10;;;;;;;18.34;100.00;99702.22;4937055;29;20278;-50
2021/11/02 14:48:24;;;;;;;13.97;6.37;;;;;;;18.67;100.00;99705.31;4920543;29;20277;-54
2021/11/02 14:50:54;;;;;;;9.90;6.70;;;;;;;18.24;100.00;99703.03;4937807;29;20274;-52
2021/11/02 14:53:28;;;;;;;7.97;5.83;;;;;;;18.42;100.00;99700.84;4938041;29;20281;-51
2021/11/02 14:55:58;;;;;;;7.43;5.47;;;;;;;17.65;100.00;99705.28;4937843;29;20273;-50
2021/11/02 14:58:40;;;;;;;7.13;4.00;;;;;;;17.62;100.00;99706.59;4935984;29;20794;-51
2021/11/02 15:01:10;;;;;;;5.70;3.63;;;;;;;18.29;100.00;99710.34;4937553;29;20296;-53
2021/11/02 15:04:12;;;;;;;3.53;2.60;;;;;;;17.58;100.00;99710.94;4920836;29;20290;-52
2021/11/02 15:06:38;;;;;;;4.93;3.13;;;;;;;17.66;100.00;99715.00;4902422;29;20377;-50
2021/11/02 15:09:11;;;;;;;23.47;4.53;;;;;;;17.59;100.00;99717.13;4936311;29;20724;-51
2021/11/02 15:11:40;;;;;;;6.73;3.30;;;;;;;17.72;100.00;99721.19;4937369;29;20040;-53
2021/11/02 15:14:10;;;;;;;5.43;3.23;;;;;;;18.46;100.00;99718.97;4937341;29;20316;-54
2021/11/02 15:17:04;;;;;;;6.57;3.20;;;;;;;18.17;100.00;99724.97;4936787;29;20605;-51
2021/11/02 15:19:32;;;;;;;5.30;2.47;;;;;;;18.06;100.00;99717.97;4934000;29;20376;-49
2021/11/02 15:22:09;;;;;;;7.23;2.53;;;;;;;17.85;100.00;99717.97;4936905;29;20282;-49
2021/11/02 15:24:38;;;;;;;3.87;2.30;;;;;;;18.00;100.00;99727.16;4936945;29;20356;-51
2021/11/02 15:27:06;;;;;;;4.67;2.37;;;;;;;17.55;100.00;99725.00;4937425;29;20624;-53
2021/11/02 15:29:41;;;;;;;5.37;2.30;;;;;;;17.63;100.00;99721.75;4937180;29;20278;-51
2021/11/02 15:32:15;;;;;;;6.87;2.80;;;;;;;18.28;100.00;99725.75;4935685;29;20278;-52
2021/11/02 15:34:44;;;;;;;6.60;2.70;;;;;;;18.53;100.00;99725.97;4937050;29;20301;-52
2021/11/02 15:37:31;;;;;;;6.67;3.20;;;;;;;18.33;100.00;99733.06;4920509;29;20353;-50
2021/11/02 15:39:57;;;;;;;5.35;2.45;;;;;;;18.28;100.00;99727.66;4937853;29;20330;-55
2021/11/02 15:42:28;;;;;;;8.17;2.13;;;;;;;17.90;100.00;99728.75;4935613;29;20070;-55
2021/11/02 15:44:56;;;;;;;5.10;2.30;;;;;;;18.42;100.00;99736.81;4936490;29;20340;-54
2021/11/02 15:47:27;;;;;;;4.80;1.87;;;;;;;17.78;100.00;99737.16;4936640;29;20356;-53
2021/11/02 15:49:58;;;;;;;6.10;3.00;;;;;;;18.01;100.00;99742.28;4936950;29;20266;-52
2021/11/02 15:52:31;;;;;;;11.27;3.33;;;;;;;17.96;100.00;99739.56;4935669;29;20310;-49
2021/11/02 15:55:06;;;;;;;21.07;6.50;;;;;;;18.15;100.00;99745.28;4903842;29;20293;-52
2021/11/02 15:57:47;;;;;;;10.63;3.37;;;;;;;17.70;100.00;99747.69;4937040;29;20297;-54
2021/11/02 16:00:15;;;;;;;7.03;2.50;;;;;;;17.25;100.00;99750.06;4935796;29;20439;-56
2021/11/02 16:02:43;;;;;;;4.43;1.73;;;;;;;17.33;100.00;99744.97;4936208;29;20270;-53
2021/11/02 16:05:17;;;;;;;4.73;2.00;;;;;;;17.87;100.00;99758.22;4919991;29;20270;-53
2021/11/02 16:07:43;;;;;;;7.87;2.47;;;;;;;17.21;100.00;99749.78;4936714;29;20294;-52
2021/11/02 16:10:09;;;;;;;8.02;2.30;;;;;;;17.41;100.00;99759.81;4919133;29;20744;-49
2021/11/02 16:12:38;;;;;;;5.90;1.90;;;;;;;17.50;100.00;99754.69;4936233;29;20090;-52
2021/11/02 16:15:06;;;;;;;4.27;2.20;;;;;;;17.25;100.00;99758.19;4936311;29;20036;-51
2021/11/02 16:17:42;;;;;;;3.33;1.98;;;;;;;17.56;100.00;99753.66;4936578;29;20277;-50
2021/11/02 16:20:14;;;;;;;6.65;2.53;;;;;;;17.45;100.00;99752.81;4919577;29;20150;-47
2021/11/02 16:23:08;;;;;;;12.93;4.70;;;;;;;17.08;100.00;99758.41;4936724;29;20047;-53
2021/11/02 16:25:38;;;;;;;20.83;6.07;;;;;;;17.48;100.00;99756.88;4933124;29;20051;-53
2021/11/02 16:28:08;;;;;;;18.45;5.65;;;;;;;17.62;100.00;99747.16;4934442;29;20035;-52
2021/11/02 16:30:37;;;;;;;24.43;6.77;;;;;;;17.49;100.00;99753.06;4936159;29;20199;-53
2021/11/02 16:33:03;;;;;;;13.50;3.95;;;;;;;17.58;100.00;99762.31;4919095;29;20348;-54